sensor_id;sensor_type;location;lat;lon;timestamp;pressure;altitude;pressure_sealevel;temperature;humidity
55460;BME280;41326;45.302;-122.946;2023-06-05T00:01:16;101178.77;;;19.41;50.76
55460;BME280;41326;45.302;-122.946;2023-06-05T00:03:46;101176.35;;;19.39;50.86
55460;BME280;41326;45.302;-122.946;2023-06-05T00:06:17;101175.45;;;19.41;50.86
55460;BME280;41326;45.302;-122.946;2023-06-05T00:08:47;101171.12;;;19.46;50.79
55460;BME280;41326;45.302;-122.946;2023-06-05T00:11:17;101165.85;;;19.45;50.86
55460;BME280;41326;45.302;-122.946;2023-06-05T00:13:47;101167.56;;;19.44;50.96
55460;BME280;41326;45.302;-122.946;2023-06-05T00:16:17;101162.56;;;19.48;50.88
55460;BME280;41326;45.302;-122.946;2023-06-05T00:18:48;101155.36;;;19.54;50.77
55460;BME280;41326;45.302;-122.946;2023-06-05T00:21:18;101161.98;;;19.53;50.89
55460;BME280;41326;45.302;-122.946;2023-06-05T00:23:48;101156.48;;;19.56;50.84
55460;BME280;41326;45.302;-122.946;2023-06-05T00:26:18;101156.86;;;19.59;50.84
55460;BME280;41326;45.302;-122.946;2023-06-05T00:28:49;101148.69;;;19.63;50.76
55460;BME280;41326;45.302;-122.946;2023-06-05T00:31:19;101143.66;;;19.66;50.73
55460;BME280;41326;45.302;-122.946;2023-06-05T00:33:49;101145.85;;;19.65;50.78
55460;BME280;41326;45.302;-122.946;2023-06-05T00:36:19;101146.95;;;19.62;50.90
55460;BME280;41326;45.302;-122.946;2023-06-05T00:38:49;101136.64;;;19.72;50.65
55460;BME280;41326;45.302;-122.946;2023-06-05T00:41:20;101131.37;;;19.72;50.66
55460;BME280;41326;45.302;-122.946;2023-06-05T00:43:50;101135.29;;;19.72;50.74
55460;BME280;41326;45.302;-122.946;2023-06-05T00:46:20;101130.83;;;19.76;50.66
55460;BME280;41326;45.302;-122.946;2023-06-05T00:48:51;101123.45;;;19.80;50.59
55460;BME280;41326;45.302;-122.946;2023-06-05T00:51:21;101130.85;;;19.78;50.68
55460;BME280;41326;45.302;-122.946;2023-06-05T00:53:53;101126.05;;;19.79;50.58
55460;BME280;41326;45.302;-122.946;2023-06-05T00:56:21;101123.81;;;19.81;50.47
55460;BME280;41326;45.302;-122.946;2023-06-05T00:58:52;101121.85;;;19.81;50.49
55460;BME280;41326;45.302;-122.946;2023-06-05T01:01:22;101117.30;;;19.89;50.30
55460;BME280;41326;45.302;-122.946;2023-06-05T01:03:53;101127.13;;;19.92;50.27
55460;BME280;41326;45.302;-122.946;2023-06-05T01:06:23;101122.45;;;19.91;50.35
55460;BME280;41326;45.302;-122.946;2023-06-05T01:08:53;101122.67;;;19.93;50.21
55460;BME280;41326;45.302;-122.946;2023-06-05T01:11:31;101118.79;;;19.94;50.20
55460;BME280;41326;45.302;-122.946;2023-06-05T01:13:57;101119.22;;;19.91;50.37
55460;BME280;41326;45.302;-122.946;2023-06-05T01:16:25;101115.17;;;19.92;50.42
55460;BME280;41326;45.302;-122.946;2023-06-05T01:18:55;101112.11;;;19.97;50.28
55460;BME280;41326;45.302;-122.946;2023-06-05T01:21:28;101111.53;;;19.99;50.24
55460;BME280;41326;45.302;-122.946;2023-06-05T01:23:57;101112.27;;;20.01;50.24
55460;BME280;41326;45.302;-122.946;2023-06-05T01:26:33;101113.80;;;20.03;50.23
55460;BME280;41326;45.302;-122.946;2023-06-05T01:28:58;101106.07;;;20.06;50.21
55460;BME280;41326;45.302;-122.946;2023-06-05T01:32:40;101102.88;;;20.06;50.30
55460;BME280;41326;45.302;-122.946;2023-06-05T01:35:05;101101.28;;;19.98;50.64
55460;BME280;41326;45.302;-122.946;2023-06-05T01:37:36;101103.00;;;20.01;50.52
55460;BME280;41326;45.302;-122.946;2023-06-05T01:40:06;101102.91;;;20.05;50.42
55460;BME280;41326;45.302;-122.946;2023-06-05T01:42:37;101103.97;;;20.09;50.49
55460;BME280;41326;45.302;-122.946;2023-06-05T01:45:08;101106.09;;;20.10;50.65
55460;BME280;41326;45.302;-122.946;2023-06-05T01:47:37;101116.15;;;20.25;49.24
55460;BME280;41326;45.302;-122.946;2023-06-05T01:50:08;101115.45;;;20.38;46.69
55460;BME280;41326;45.302;-122.946;2023-06-05T01:52:38;101102.00;;;20.45;45.91
55460;BME280;41326;45.302;-122.946;2023-06-05T01:55:09;101106.66;;;20.43;45.14
55460;BME280;41326;45.302;-122.946;2023-06-05T01:57:38;101100.88;;;20.50;43.44
55460;BME280;41326;45.302;-122.946;2023-06-05T02:00:09;101105.58;;;20.59;42.46
55460;BME280;41326;45.302;-122.946;2023-06-05T02:02:39;101106.91;;;20.55;41.49
55460;BME280;41326;45.302;-122.946;2023-06-05T02:05:09;101108.06;;;20.54;41.87
55460;BME280;41326;45.302;-122.946;2023-06-05T02:07:43;101107.81;;;20.52;43.83
55460;BME280;41326;45.302;-122.946;2023-06-05T02:10:10;101106.79;;;20.55;45.20
55460;BME280;41326;45.302;-122.946;2023-06-05T02:12:41;101107.27;;;20.54;46.50
55460;BME280;41326;45.302;-122.946;2023-06-05T02:15:12;101102.57;;;20.60;47.47
55460;BME280;41326;45.302;-122.946;2023-06-05T02:17:42;101107.72;;;20.57;48.25
55460;BME280;41326;45.302;-122.946;2023-06-05T02:20:13;101105.10;;;20.66;48.49
55460;BME280;41326;45.302;-122.946;2023-06-05T02:22:47;101106.98;;;20.70;48.76
55460;BME280;41326;45.302;-122.946;2023-06-05T02:25:17;101107.86;;;20.81;48.46
55460;BME280;41326;45.302;-122.946;2023-06-05T02:27:47;101114.04;;;20.83;46.74
55460;BME280;41326;45.302;-122.946;2023-06-05T02:30:18;101112.47;;;20.89;45.92
55460;BME280;41326;45.302;-122.946;2023-06-05T02:32:50;101116.84;;;20.82;45.30
55460;BME280;41326;45.302;-122.946;2023-06-05T02:35:19;101114.00;;;20.78;45.03
55460;BME280;41326;45.302;-122.946;2023-06-05T02:37:50;101117.30;;;20.78;44.43
55460;BME280;41326;45.302;-122.946;2023-06-05T02:40:20;101113.07;;;20.74;43.48
55460;BME280;41326;45.302;-122.946;2023-06-05T02:42:50;101115.75;;;20.71;43.23
55460;BME280;41326;45.302;-122.946;2023-06-05T02:45:21;101115.35;;;20.72;42.77
55460;BME280;41326;45.302;-122.946;2023-06-05T02:47:52;101107.76;;;20.69;42.60
55460;BME280;41326;45.302;-122.946;2023-06-05T02:50:21;101112.05;;;20.73;42.40
55460;BME280;41326;45.302;-122.946;2023-06-05T02:52:52;101116.48;;;20.69;41.89
55460;BME280;41326;45.302;-122.946;2023-06-05T02:55:22;101111.88;;;20.68;42.03
55460;BME280;41326;45.302;-122.946;2023-06-05T02:57:52;101112.64;;;20.69;42.95
55460;BME280;41326;45.302;-122.946;2023-06-05T03:00:23;101114.46;;;20.68;43.50
55460;BME280;41326;45.302;-122.946;2023-06-05T03:02:53;101109.39;;;20.69;43.98
55460;BME280;41326;45.302;-122.946;2023-06-05T03:05:24;101110.87;;;20.70;44.43
55460;BME280;41326;45.302;-122.946;2023-06-05T03:07:54;101116.03;;;20.68;44.89
55460;BME280;41326;45.302;-122.946;2023-06-05T03:10:25;101116.30;;;20.73;45.09
55460;BME280;41326;45.302;-122.946;2023-06-05T03:12:55;101114.92;;;20.69;45.72
55460;BME280;41326;45.302;-122.946;2023-06-05T03:15:25;101108.28;;;20.68;46.26
55460;BME280;41326;45.302;-122.946;2023-06-05T03:17:56;101112.99;;;20.68;46.59
55460;BME280;41326;45.302;-122.946;2023-06-05T03:20:26;101110.94;;;20.71;46.71
55460;BME280;41326;45.302;-122.946;2023-06-05T03:22:56;101115.36;;;20.73;46.82
55460;BME280;41326;45.302;-122.946;2023-06-05T03:25:26;101120.59;;;20.77;46.91
55460;BME280;41326;45.302;-122.946;2023-06-05T03:27:57;101121.30;;;20.78;47.09
55460;BME280;41326;45.302;-122.946;2023-06-05T03:30:27;101126.62;;;20.71;47.47
55460;BME280;41326;45.302;-122.946;2023-06-05T03:32:57;101132.20;;;20.70;47.72
55460;BME280;41326;45.302;-122.946;2023-06-05T03:35:27;101148.30;;;20.67;48.05
55460;BME280;41326;45.302;-122.946;2023-06-05T03:37:58;101145.95;;;20.66;48.25
55460;BME280;41326;45.302;-122.946;2023-06-05T03:40:28;101149.08;;;20.68;48.29
55460;BME280;41326;45.302;-122.946;2023-06-05T03:42:58;101154.20;;;20.70;48.33
55460;BME280;41326;45.302;-122.946;2023-06-05T03:45:28;101151.29;;;20.72;48.43
55460;BME280;41326;45.302;-122.946;2023-06-05T03:47:59;101152.58;;;20.75;48.42
55460;BME280;41326;45.302;-122.946;2023-06-05T03:50:29;101155.93;;;20.75;48.51
55460;BME280;41326;45.302;-122.946;2023-06-05T03:53:00;101154.88;;;20.63;48.02
55460;BME280;41326;45.302;-122.946;2023-06-05T03:55:30;101156.39;;;20.45;47.75
55460;BME280;41326;45.302;-122.946;2023-06-05T03:58:00;101153.63;;;20.22;47.60
55460;BME280;41326;45.302;-122.946;2023-06-05T04:00:31;101155.33;;;20.01;47.70
55460;BME280;41326;45.302;-122.946;2023-06-05T04:03:00;101160.81;;;19.91;47.48
55460;BME280;41326;45.302;-122.946;2023-06-05T04:05:30;101161.26;;;19.77;47.38
55460;BME280;41326;45.302;-122.946;2023-06-05T04:08:01;101166.45;;;19.59;47.54
55460;BME280;41326;45.302;-122.946;2023-06-05T04:10:32;101171.44;;;19.45;47.42
55460;BME280;41326;45.302;-122.946;2023-06-05T04:13:02;101169.68;;;19.34;47.34
55460;BME280;41326;45.302;-122.946;2023-06-05T04:15:33;101167.63;;;19.20;47.35
55460;BME280;41326;45.302;-122.946;2023-06-05T04:18:02;101168.87;;;19.00;47.73
55460;BME280;41326;45.302;-122.946;2023-06-05T04:20:33;101167.01;;;19.11;47.76
55460;BME280;41326;45.302;-122.946;2023-06-05T04:23:04;101173.67;;;19.25;46.99
55460;BME280;41326;45.302;-122.946;2023-06-05T04:25:34;101181.34;;;19.26;46.58
55460;BME280;41326;45.302;-122.946;2023-06-05T04:28:04;101184.66;;;19.43;46.53
55460;BME280;41326;45.302;-122.946;2023-06-05T04:30:35;101186.48;;;19.45;44.78
55460;BME280;41326;45.302;-122.946;2023-06-05T04:33:05;101182.23;;;19.39;45.98
55460;BME280;41326;45.302;-122.946;2023-06-05T04:35:36;101184.44;;;19.36;46.44
55460;BME280;41326;45.302;-122.946;2023-06-05T04:38:06;101183.98;;;19.37;46.97
55460;BME280;41326;45.302;-122.946;2023-06-05T04:40:36;101185.33;;;19.40;46.66
55460;BME280;41326;45.302;-122.946;2023-06-05T04:43:06;101185.93;;;19.45;46.57
55460;BME280;41326;45.302;-122.946;2023-06-05T04:45:37;101185.36;;;19.42;46.09
55460;BME280;41326;45.302;-122.946;2023-06-05T04:48:07;101185.71;;;19.32;45.65
55460;BME280;41326;45.302;-122.946;2023-06-05T04:50:38;101189.84;;;19.32;45.82
55460;BME280;41326;45.302;-122.946;2023-06-05T04:53:07;101186.37;;;19.34;45.97
55460;BME280;41326;45.302;-122.946;2023-06-05T04:55:38;101188.37;;;19.35;45.95
55460;BME280;41326;45.302;-122.946;2023-06-05T04:58:08;101192.46;;;19.28;45.90
55460;BME280;41326;45.302;-122.946;2023-06-05T05:00:39;101196.46;;;19.28;46.09
55460;BME280;41326;45.302;-122.946;2023-06-05T05:03:09;101195.38;;;19.36;46.21
55460;BME280;41326;45.302;-122.946;2023-06-05T05:05:39;101193.29;;;19.42;46.28
55460;BME280;41326;45.302;-122.946;2023-06-05T05:08:09;101196.22;;;19.39;45.89
55460;BME280;41326;45.302;-122.946;2023-06-05T05:10:39;101196.66;;;19.46;45.94
55460;BME280;41326;45.302;-122.946;2023-06-05T05:13:10;101199.41;;;19.47;46.87
55460;BME280;41326;45.302;-122.946;2023-06-05T05:15:40;101202.97;;;19.45;45.55
55460;BME280;41326;45.302;-122.946;2023-06-05T05:18:11;101208.80;;;19.46;46.17
55460;BME280;41326;45.302;-122.946;2023-06-05T05:20:41;101201.35;;;19.36;45.24
55460;BME280;41326;45.302;-122.946;2023-06-05T05:23:11;101203.65;;;19.26;45.44
55460;BME280;41326;45.302;-122.946;2023-06-05T05:25:43;101203.94;;;19.22;46.00
55460;BME280;41326;45.302;-122.946;2023-06-05T05:28:12;101207.00;;;19.30;44.41
55460;BME280;41326;45.302;-122.946;2023-06-05T05:30:42;101201.76;;;19.20;44.04
55460;BME280;41326;45.302;-122.946;2023-06-05T05:33:12;101205.08;;;19.07;45.14
55460;BME280;41326;45.302;-122.946;2023-06-05T05:35:44;101210.81;;;19.20;46.45
55460;BME280;41326;45.302;-122.946;2023-06-05T05:38:13;101210.65;;;19.24;46.28
55460;BME280;41326;45.302;-122.946;2023-06-05T05:40:44;101217.26;;;19.16;46.18
55460;BME280;41326;45.302;-122.946;2023-06-05T05:43:14;101218.91;;;19.20;46.21
55460;BME280;41326;45.302;-122.946;2023-06-05T05:45:44;101222.98;;;19.03;45.71
55460;BME280;41326;45.302;-122.946;2023-06-05T05:48:14;101222.07;;;18.98;46.05
55460;BME280;41326;45.302;-122.946;2023-06-05T05:50:46;101221.36;;;19.12;45.70
55460;BME280;41326;45.302;-122.946;2023-06-05T05:53:15;101223.45;;;19.17;46.63
55460;BME280;41326;45.302;-122.946;2023-06-05T05:55:46;101223.21;;;19.26;47.12
55460;BME280;41326;45.302;-122.946;2023-06-05T05:58:16;101222.79;;;19.27;46.64
55460;BME280;41326;45.302;-122.946;2023-06-05T06:00:47;101223.79;;;19.21;46.74
55460;BME280;41326;45.302;-122.946;2023-06-05T06:03:17;101229.54;;;19.14;46.57
55460;BME280;41326;45.302;-122.946;2023-06-05T06:05:48;101231.89;;;19.28;46.47
55460;BME280;41326;45.302;-122.946;2023-06-05T06:08:18;101226.91;;;19.26;46.35
55460;BME280;41326;45.302;-122.946;2023-06-05T06:10:48;101231.35;;;19.26;46.32
55460;BME280;41326;45.302;-122.946;2023-06-05T06:13:19;101224.86;;;19.28;46.86
55460;BME280;41326;45.302;-122.946;2023-06-05T06:15:50;101232.81;;;19.28;44.79
55460;BME280;41326;45.302;-122.946;2023-06-05T06:18:20;101220.89;;;19.02;45.39
55460;BME280;41326;45.302;-122.946;2023-06-05T06:20:50;101217.30;;;18.80;45.40
55460;BME280;41326;45.302;-122.946;2023-06-05T06:23:20;101215.85;;;19.01;45.48
55460;BME280;41326;45.302;-122.946;2023-06-05T06:25:50;101221.25;;;19.08;45.62
55460;BME280;41326;45.302;-122.946;2023-06-05T06:28:21;101217.79;;;19.14;45.42
55460;BME280;41326;45.302;-122.946;2023-06-05T06:30:51;101219.32;;;19.21;45.43
55460;BME280;41326;45.302;-122.946;2023-06-05T06:33:22;101213.51;;;19.18;45.42
55460;BME280;41326;45.302;-122.946;2023-06-05T06:35:52;101208.71;;;19.05;45.37
55460;BME280;41326;45.302;-122.946;2023-06-05T06:38:22;101215.25;;;19.07;45.76
55460;BME280;41326;45.302;-122.946;2023-06-05T06:40:52;101211.38;;;19.12;45.86
55460;BME280;41326;45.302;-122.946;2023-06-05T06:43:23;101218.69;;;19.16;45.62
55460;BME280;41326;45.302;-122.946;2023-06-05T06:45:53;101220.71;;;19.20;45.43
55460;BME280;41326;45.302;-122.946;2023-06-05T06:48:24;101225.60;;;19.24;45.32
55460;BME280;41326;45.302;-122.946;2023-06-05T06:50:54;101227.89;;;19.25;44.96
55460;BME280;41326;45.302;-122.946;2023-06-05T06:53:24;101221.20;;;19.20;44.99
55460;BME280;41326;45.302;-122.946;2023-06-05T06:55:55;101222.93;;;19.12;45.41
55460;BME280;41326;45.302;-122.946;2023-06-05T06:58:25;101221.35;;;19.08;45.48
55460;BME280;41326;45.302;-122.946;2023-06-05T07:00:55;101218.45;;;19.05;45.51
55460;BME280;41326;45.302;-122.946;2023-06-05T07:03:26;101222.07;;;18.96;45.73
55460;BME280;41326;45.302;-122.946;2023-06-05T07:05:56;101216.52;;;19.00;45.73
55460;BME280;41326;45.302;-122.946;2023-06-05T07:08:26;101221.09;;;19.00;45.77
55460;BME280;41326;45.302;-122.946;2023-06-05T07:10:58;101223.73;;;19.05;45.68
55460;BME280;41326;45.302;-122.946;2023-06-05T07:13:27;101223.54;;;19.03;46.00
55460;BME280;41326;45.302;-122.946;2023-06-05T07:15:57;101223.03;;;19.08;46.14
55460;BME280;41326;45.302;-122.946;2023-06-05T07:18:27;101217.94;;;19.08;45.64
55460;BME280;41326;45.302;-122.946;2023-06-05T07:20:57;101219.23;;;18.86;44.88
55460;BME280;41326;45.302;-122.946;2023-06-05T07:23:28;101213.33;;;18.79;45.29
55460;BME280;41326;45.302;-122.946;2023-06-05T07:25:58;101211.56;;;18.89;45.19
55460;BME280;41326;45.302;-122.946;2023-06-05T07:28:29;101211.01;;;18.97;45.06
55460;BME280;41326;45.302;-122.946;2023-06-05T07:30:59;101213.66;;;18.95;45.27
55460;BME280;41326;45.302;-122.946;2023-06-05T07:33:29;101212.47;;;18.85;45.48
55460;BME280;41326;45.302;-122.946;2023-06-05T07:36:00;101214.17;;;18.94;45.61
55460;BME280;41326;45.302;-122.946;2023-06-05T07:38:30;101211.17;;;18.91;45.53
55460;BME280;41326;45.302;-122.946;2023-06-05T07:41:00;101212.71;;;18.88;45.36
55460;BME280;41326;45.302;-122.946;2023-06-05T07:43:30;101210.16;;;18.88;45.36
55460;BME280;41326;45.302;-122.946;2023-06-05T07:46:01;101214.15;;;18.92;45.37
55460;BME280;41326;45.302;-122.946;2023-06-05T07:48:31;101214.69;;;18.92;45.26
55460;BME280;41326;45.302;-122.946;2023-06-05T07:51:01;101215.43;;;18.80;43.51
55460;BME280;41326;45.302;-122.946;2023-06-05T07:53:32;101222.21;;;18.78;43.12
55460;BME280;41326;45.302;-122.946;2023-06-05T07:56:02;101217.32;;;18.62;42.88
55460;BME280;41326;45.302;-122.946;2023-06-05T07:58:33;101218.13;;;18.62;43.68
55460;BME280;41326;45.302;-122.946;2023-06-05T08:01:03;101221.12;;;18.54;43.75
55460;BME280;41326;45.302;-122.946;2023-06-05T08:03:33;101220.87;;;18.63;43.49
55460;BME280;41326;45.302;-122.946;2023-06-05T08:06:03;101219.42;;;18.58;43.41
55460;BME280;41326;45.302;-122.946;2023-06-05T08:08:33;101222.73;;;18.49;43.55
55460;BME280;41326;45.302;-122.946;2023-06-05T08:11:03;101219.04;;;18.47;43.59
55460;BME280;41326;45.302;-122.946;2023-06-05T08:13:34;101222.41;;;18.38;43.18
55460;BME280;41326;45.302;-122.946;2023-06-05T08:16:04;101224.31;;;18.37;43.68
55460;BME280;41326;45.302;-122.946;2023-06-05T08:18:34;101223.56;;;18.38;43.77
55460;BME280;41326;45.302;-122.946;2023-06-05T08:21:04;101219.75;;;18.21;43.18
55460;BME280;41326;45.302;-122.946;2023-06-05T08:23:34;101220.13;;;18.20;43.74
55460;BME280;41326;45.302;-122.946;2023-06-05T08:26:05;101219.98;;;18.09;42.93
55460;BME280;41326;45.302;-122.946;2023-06-05T08:28:35;101219.28;;;17.90;41.18
55460;BME280;41326;45.302;-122.946;2023-06-05T08:31:05;101213.77;;;18.04;42.77
55460;BME280;41326;45.302;-122.946;2023-06-05T08:33:36;101217.72;;;17.85;42.57
55460;BME280;41326;45.302;-122.946;2023-06-05T08:36:06;101220.37;;;17.70;42.49
55460;BME280;41326;45.302;-122.946;2023-06-05T08:38:37;101217.68;;;17.82;43.09
55460;BME280;41326;45.302;-122.946;2023-06-05T08:41:07;101229.87;;;17.74;41.53
55460;BME280;41326;45.302;-122.946;2023-06-05T08:43:37;101224.12;;;17.89;42.77
55460;BME280;41326;45.302;-122.946;2023-06-05T08:46:08;101224.96;;;17.87;43.69
55460;BME280;41326;45.302;-122.946;2023-06-05T08:48:41;101224.64;;;17.98;43.74
55460;BME280;41326;45.302;-122.946;2023-06-05T08:51:10;101221.78;;;18.04;43.88
55460;BME280;41326;45.302;-122.946;2023-06-05T08:53:39;101221.36;;;18.04;43.75
55460;BME280;41326;45.302;-122.946;2023-06-05T08:56:10;101214.36;;;18.13;43.34
55460;BME280;41326;45.302;-122.946;2023-06-05T08:58:40;101225.28;;;18.03;43.87
55460;BME280;41326;45.302;-122.946;2023-06-05T09:01:10;101220.76;;;18.02;43.93
55460;BME280;41326;45.302;-122.946;2023-06-05T09:03:40;101222.98;;;18.02;43.91
55460;BME280;41326;45.302;-122.946;2023-06-05T09:06:10;101225.71;;;18.06;44.19
55460;BME280;41326;45.302;-122.946;2023-06-05T09:08:41;101216.51;;;18.08;44.09
55460;BME280;41326;45.302;-122.946;2023-06-05T09:13:46;101224.93;;;17.91;44.60
55460;BME280;41326;45.302;-122.946;2023-06-05T09:16:12;101222.18;;;17.97;44.25
55460;BME280;41326;45.302;-122.946;2023-06-05T09:21:16;101223.80;;;18.04;43.96
55460;BME280;41326;45.302;-122.946;2023-06-05T09:23:42;101224.47;;;17.93;44.23
55460;BME280;41326;45.302;-122.946;2023-06-05T09:26:13;101209.69;;;18.00;44.24
55460;BME280;41326;45.302;-122.946;2023-06-05T09:31:13;101217.58;;;17.81;42.51
55460;BME280;41326;45.302;-122.946;2023-06-05T09:33:45;101216.20;;;17.99;43.67
55460;BME280;41326;45.302;-122.946;2023-06-05T09:36:15;101223.91;;;17.90;44.07
55460;BME280;41326;45.302;-122.946;2023-06-05T09:38:45;101220.73;;;17.83;43.43
55460;BME280;41326;45.302;-122.946;2023-06-05T09:41:15;101221.81;;;17.94;43.85
55460;BME280;41326;45.302;-122.946;2023-06-05T09:43:46;101218.89;;;17.81;44.27
55460;BME280;41326;45.302;-122.946;2023-06-05T09:46:17;101213.98;;;17.83;44.25
55460;BME280;41326;45.302;-122.946;2023-06-05T09:48:52;101224.68;;;17.84;44.35
55460;BME280;41326;45.302;-122.946;2023-06-05T09:51:17;101222.22;;;17.85;44.32
55460;BME280;41326;45.302;-122.946;2023-06-05T09:53:49;101223.99;;;17.77;44.22
55460;BME280;41326;45.302;-122.946;2023-06-05T09:56:19;101224.43;;;17.83;44.14
55460;BME280;41326;45.302;-122.946;2023-06-05T09:58:50;101224.40;;;17.90;44.17
55460;BME280;41326;45.302;-122.946;2023-06-05T10:01:22;101220.18;;;17.83;43.83
55460;BME280;41326;45.302;-122.946;2023-06-05T10:03:52;101222.32;;;17.71;43.94
55460;BME280;41326;45.302;-122.946;2023-06-05T10:06:19;101223.29;;;17.69;43.75
55460;BME280;41326;45.302;-122.946;2023-06-05T10:08:49;101228.06;;;17.66;44.31
55460;BME280;41326;45.302;-122.946;2023-06-05T10:11:20;101226.49;;;17.80;43.87
55460;BME280;41326;45.302;-122.946;2023-06-05T10:13:50;101228.83;;;17.77;44.26
55460;BME280;41326;45.302;-122.946;2023-06-05T10:16:22;101226.00;;;17.72;44.36
55460;BME280;41326;45.302;-122.946;2023-06-05T10:18:52;101220.98;;;17.78;44.14
55460;BME280;41326;45.302;-122.946;2023-06-05T10:21:23;101220.27;;;17.74;44.02
55460;BME280;41326;45.302;-122.946;2023-06-05T10:23:55;101221.39;;;17.62;44.49
55460;BME280;41326;45.302;-122.946;2023-06-05T10:29:00;101223.93;;;17.66;44.55
55460;BME280;41326;45.302;-122.946;2023-06-05T10:31:27;101221.87;;;17.64;44.76
55460;BME280;41326;45.302;-122.946;2023-06-05T10:34:02;101219.87;;;17.62;44.86
55460;BME280;41326;45.302;-122.946;2023-06-05T10:36:36;101223.91;;;17.72;44.70
55460;BME280;41326;45.302;-122.946;2023-06-05T10:38:54;101223.61;;;17.75;44.70
55460;BME280;41326;45.302;-122.946;2023-06-05T10:41:24;101222.88;;;17.70;44.71
55460;BME280;41326;45.302;-122.946;2023-06-05T10:43:55;101224.75;;;17.62;44.75
55460;BME280;41326;45.302;-122.946;2023-06-05T10:46:30;101222.35;;;17.70;44.54
55460;BME280;41326;45.302;-122.946;2023-06-05T10:51:33;101222.82;;;17.64;44.56
55460;BME280;41326;45.302;-122.946;2023-06-05T10:53:55;101224.91;;;17.56;44.65
55460;BME280;41326;45.302;-122.946;2023-06-05T11:01:27;101225.90;;;17.56;44.35
55460;BME280;41326;45.302;-122.946;2023-06-05T11:04:02;101232.92;;;17.57;44.06
55460;BME280;41326;45.302;-122.946;2023-06-05T11:06:27;101226.23;;;17.43;44.41
55460;BME280;41326;45.302;-122.946;2023-06-05T11:09:07;101228.12;;;17.54;44.09
55460;BME280;41326;45.302;-122.946;2023-06-05T11:15:07;101223.42;;;17.46;44.46
55460;BME280;41326;45.302;-122.946;2023-06-05T11:17:38;101222.62;;;17.43;44.38
55460;BME280;41326;45.302;-122.946;2023-06-05T11:20:08;101222.93;;;17.50;43.73
55460;BME280;41326;45.302;-122.946;2023-06-05T11:25:24;101218.92;;;17.52;43.47
55460;BME280;41326;45.302;-122.946;2023-06-05T11:27:49;101219.21;;;17.43;43.87
55460;BME280;41326;45.302;-122.946;2023-06-05T11:30:20;101213.78;;;17.42;43.47
55460;BME280;41326;45.302;-122.946;2023-06-05T11:32:50;101220.24;;;17.49;43.66
55460;BME280;41326;45.302;-122.946;2023-06-05T11:35:20;101209.96;;;17.46;43.68
55460;BME280;41326;45.302;-122.946;2023-06-05T11:37:51;101215.43;;;17.46;44.04
55460;BME280;41326;45.302;-122.946;2023-06-05T11:40:25;101211.29;;;17.40;43.48
55460;BME280;41326;45.302;-122.946;2023-06-05T11:42:51;101208.06;;;17.39;43.82
55460;BME280;41326;45.302;-122.946;2023-06-05T11:45:21;101209.15;;;17.32;43.84
55460;BME280;41326;45.302;-122.946;2023-06-05T11:47:52;101203.50;;;17.26;44.04
55460;BME280;41326;45.302;-122.946;2023-06-05T11:50:22;101199.58;;;17.27;44.09
55460;BME280;41326;45.302;-122.946;2023-06-05T11:52:52;101200.36;;;17.23;44.22
55460;BME280;41326;45.302;-122.946;2023-06-05T11:55:23;101197.31;;;17.21;43.59
55460;BME280;41326;45.302;-122.946;2023-06-05T11:57:53;101195.02;;;17.21;44.01
55460;BME280;41326;45.302;-122.946;2023-06-05T12:00:28;101198.79;;;17.20;44.06
55460;BME280;41326;45.302;-122.946;2023-06-05T12:02:54;101196.30;;;17.21;44.03
55460;BME280;41326;45.302;-122.946;2023-06-05T12:05:24;101197.48;;;17.18;43.96
55460;BME280;41326;45.302;-122.946;2023-06-05T12:07:54;101197.52;;;17.22;43.94
55460;BME280;41326;45.302;-122.946;2023-06-05T12:12:56;101193.28;;;17.20;44.24
55460;BME280;41326;45.302;-122.946;2023-06-05T12:15:25;101190.52;;;17.19;44.39
55460;BME280;41326;45.302;-122.946;2023-06-05T12:17:56;101194.61;;;17.29;43.29
55460;BME280;41326;45.302;-122.946;2023-06-05T12:20:26;101196.83;;;17.22;43.67
55460;BME280;41326;45.302;-122.946;2023-06-05T12:22:55;101199.38;;;17.19;44.04
55460;BME280;41326;45.302;-122.946;2023-06-05T12:25:27;101197.57;;;17.06;44.55
55460;BME280;41326;45.302;-122.946;2023-06-05T12:27:56;101201.56;;;17.14;44.52
55460;BME280;41326;45.302;-122.946;2023-06-05T12:30:26;101197.98;;;17.13;44.38
55460;BME280;41326;45.302;-122.946;2023-06-05T12:35:27;101202.41;;;17.00;44.53
55460;BME280;41326;45.302;-122.946;2023-06-05T12:37:59;101206.64;;;17.03;44.62
55460;BME280;41326;45.302;-122.946;2023-06-05T12:40:27;101203.83;;;17.06;44.78
55460;BME280;41326;45.302;-122.946;2023-06-05T12:42:58;101209.74;;;17.08;44.88
55460;BME280;41326;45.302;-122.946;2023-06-05T12:45:28;101201.72;;;17.05;44.87
55460;BME280;41326;45.302;-122.946;2023-06-05T12:47:58;101208.78;;;17.08;44.96
55460;BME280;41326;45.302;-122.946;2023-06-05T12:50:28;101209.29;;;16.99;44.86
55460;BME280;41326;45.302;-122.946;2023-06-05T12:52:59;101210.67;;;16.99;44.81
55460;BME280;41326;45.302;-122.946;2023-06-05T12:55:29;101213.52;;;16.91;45.03
55460;BME280;41326;45.302;-122.946;2023-06-05T12:58:00;101218.31;;;16.93;44.69
55460;BME280;41326;45.302;-122.946;2023-06-05T13:00:30;101217.61;;;16.99;44.78
55460;BME280;41326;45.302;-122.946;2023-06-05T13:03:01;101222.11;;;16.92;45.46
55460;BME280;41326;45.302;-122.946;2023-06-05T13:05:31;101221.97;;;16.95;45.36